Time;durP1;ratioP1;P1;durP2;ratioP2;P2;SDS_P1;SDS_P2;PMS_P1;PMS_P2;Temp;Humidity;BMP_temperature;BMP_pressure;BME280_temperature;BME280_humidity;BME280_pressure;Samples;Min_cycle;Max_cycle;Signal;HPM_P1;HPM_P2
2021/05/13 00:00:17;;;;;;;0.60;0.60;;;;;;;9.81;76.82;96231.03;29395;208;63004;-57
2021/05/13 00:00:48;;;;;;;0.50;0.50;;;;;;;9.80;77.05;96232.12;29395;220;63009;-58
2021/05/13 00:01:22;;;;;;;0.50;0.50;;;;;;;9.81;76.83;96223.69;29395;198;63005;-59
2021/05/13 00:01:53;;;;;;;0.60;0.60;;;;;;;9.81;77.22;96237.25;29395;233;63009;-56
2021/05/13 00:02:24;;;;;;;0.50;0.50;;;;;;;9.81;76.97;96228.31;29395;264;63005;-58
2021/05/13 00:02:55;;;;;;;0.50;0.50;;;;;;;9.80;77.17;96227.50;29394;204;64009;-57
2021/05/13 00:03:26;;;;;;;0.55;0.55;;;;;;;9.80;77.19;96227.50;29395;277;63008;-57
2021/05/13 00:03:58;;;;;;;0.60;0.60;;;;;;;9.79;77.24;96225.91;29395;252;63009;-58
2021/05/13 00:04:29;;;;;;;0.50;0.50;;;;;;;9.79;77.42;96225.91;29394;272;64005;-58
2021/05/13 00:05:00;;;;;;;0.60;0.60;;;;;;;9.78;77.21;96224.31;29395;202;63009;-58
2021/05/13 00:05:31;;;;;;;0.60;0.60;;;;;;;9.79;77.23;96225.09;29395;202;63004;-58
2021/05/13 00:06:04;;;;;;;0.60;0.60;;;;;;;9.79;77.50;96225.09;29395;230;63009;-58
2021/05/13 00:06:35;;;;;;;0.50;0.50;;;;;;;9.78;77.08;96224.31;29395;245;63004;-58
2021/05/13 00:07:06;;;;;;;0.50;0.50;;;;;;;9.79;77.36;96220.47;29395;217;63015;-57
2021/05/13 00:07:37;;;;;;;0.60;0.60;;;;;;;9.78;77.11;96218.88;29395;212;63000;-57
2021/05/13 00:08:08;;;;;;;0.50;0.50;;;;;;;9.79;77.33;96220.47;29395;217;63008;-58
2021/05/13 00:08:39;;;;;;;0.50;0.50;;;;;;;9.80;76.81;96222.09;29395;214;63005;-58
2021/05/13 00:09:11;;;;;;;0.50;0.50;;;;;;;9.80;77.01;96216.66;29395;223;63009;-57
2021/05/13 00:09:44;;;;;;;0.50;0.50;;;;;;;9.81;76.92;96223.69;29394;216;64005;-59
2021/05/13 00:10:20;;;;;;;0.60;0.60;;;;;;;9.80;77.03;96216.66;29395;251;63009;-57
2021/05/13 00:10:51;;;;;;;0.50;0.50;;;;;;;9.79;76.67;96222.41;29395;212;63013;-57
2021/05/13 00:11:31;;;;;;;0.50;0.50;;;;;;;9.79;77.01;96219.69;29395;245;63009;-57
2021/05/13 00:12:13;;;;;;;0.50;0.50;;;;;;;9.77;77.30;96217.28;29417;221;63005;-57
2021/05/13 00:12:54;;;;;;;0.50;0.50;;;;;;;9.74;77.26;96215.97;29416;230;64009;-57
2021/05/13 00:13:25;;;;;;;0.50;0.50;;;;;;;9.76;77.37;96223.81;29394;196;64004;-57
2021/05/13 00:13:58;;;;;;;0.60;0.60;;;;;;;9.75;77.25;96219.47;29395;207;63009;-58
2021/05/13 00:14:29;;;;;;;0.60;0.60;;;;;;;9.75;77.06;96214.06;29395;246;63004;-57
2021/05/13 00:15:05;;;;;;;0.50;0.50;;;;;;;9.74;76.87;96224.09;29394;202;64007;-57
2021/05/13 00:15:39;;;;;;;0.50;0.50;;;;;;;9.75;77.07;96219.47;29395;241;63004;-57
2021/05/13 00:16:10;;;;;;;0.52;0.52;;;;;;;9.74;76.87;96210.56;29395;248;63009;-58
2021/05/13 00:16:44;;;;;;;0.50;0.50;;;;;;;9.75;76.83;96224.91;29395;208;63005;-58
2021/05/13 00:17:15;;;;;;;0.50;0.50;;;;;;;9.73;77.15;96216.28;29395;265;63013;-58
2021/05/13 00:17:47;;;;;;;0.60;0.60;;;;;;;9.72;77.03;96215.47;29395;199;63005;-57
2021/05/13 00:18:18;;;;;;;0.60;0.60;;;;;;;9.73;77.38;96219.78;29395;203;63009;-57
2021/05/13 00:18:49;;;;;;;0.57;0.57;;;;;;;9.72;77.39;96217.38;29395;253;63005;-58
2021/05/13 00:19:20;;;;;;;0.50;0.50;;;;;;;9.72;77.64;96220.09;29395;229;63009;-63
2021/05/13 00:19:51;;;;;;;0.60;0.60;;;;;;;9.72;77.27;96215.47;29394;253;64004;-57
2021/05/13 00:20:29;;;;;;;0.50;0.50;;;;;;;9.71;77.33;96207.66;29395;232;63009;-59
2021/05/13 00:21:00;;;;;;;0.60;0.60;;;;;;;9.71;77.13;96218.47;29395;218;63004;-58
2021/05/13 00:21:32;;;;;;;0.60;0.60;;;;;;;9.70;77.23;96216.91;29395;210;63009;-57
2021/05/13 00:22:04;;;;;;;0.60;0.60;;;;;;;9.71;77.21;96213.06;29395;247;63004;-58
2021/05/13 00:22:35;;;;;;;0.60;0.60;;;;;;;9.71;77.23;96213.06;29395;217;63008;-57
2021/05/13 00:23:06;;;;;;;0.60;0.60;;;;;;;9.71;77.13;96210.34;29395;250;63004;-56
2021/05/13 00:23:37;;;;;;;0.70;0.70;;;;;;;9.70;77.31;96211.50;29395;262;63009;-56
2021/05/13 00:24:10;;;;;;;0.60;0.60;;;;;;;9.70;77.49;96211.50;29395;247;63005;-58
2021/05/13 00:24:41;;;;;;;0.60;0.60;;;;;;;9.70;77.88;96211.50;29394;213;64009;-56
2021/05/13 00:25:14;;;;;;;0.60;0.60;;;;;;;9.70;77.63;96208.78;29395;211;63005;-56
2021/05/13 00:25:48;;;;;;;1.00;1.00;;;;;;;9.71;77.84;96213.06;29395;252;63009;-57
2021/05/13 00:26:34;;;;;;;0.60;0.60;;;;;;;9.70;77.87;96211.50;29395;258;63000;-56
2021/05/13 00:27:07;;;;;;;0.60;0.60;;;;;;;9.68;78.36;96209.09;29395;220;63009;-57
2021/05/13 00:27:39;;;;;;;0.60;0.60;;;;;;;9.68;78.17;96208.28;29395;222;63004;-57
2021/05/13 00:28:10;;;;;;;0.60;0.60;;;;;;;9.68;78.70;96214.50;29395;218;63014;-57
2021/05/13 00:28:42;;;;;;;0.60;0.60;;;;;;;9.69;78.54;96205.28;29395;220;63004;-58
2021/05/13 00:29:15;;;;;;;0.60;0.60;;;;;;;9.68;78.31;96202.88;29395;272;63009;-56
2021/05/13 00:29:47;;;;;;;0.60;0.60;;;;;;;9.70;78.50;96206.06;29394;212;64004;-57
2021/05/13 00:30:20;;;;;;;0.60;0.60;;;;;;;9.72;77.95;96198.41;29395;252;63009;-59
2021/05/13 00:30:51;;;;;;;0.60;0.60;;;;;;;9.73;77.48;96200.03;29395;264;63005;-59
2021/05/13 00:31:22;;;;;;;0.60;0.60;;;;;;;9.73;77.79;96200.81;29395;215;63009;-58
2021/05/13 00:31:53;;;;;;;0.60;0.60;;;;;;;9.76;77.32;96204.84;29395;251;63005;-58
2021/05/13 00:32:24;;;;;;;0.60;0.60;;;;;;;9.77;77.13;96201.03;29395;226;63009;-57
2021/05/13 00:32:56;;;;;;;0.50;0.50;;;;;;;9.78;77.21;96199.91;29395;206;63005;-57
2021/05/13 00:33:27;;;;;;;0.50;0.50;;;;;;;9.79;77.35;96193.38;29395;211;63009;-57
2021/05/13 00:34:00;;;;;;;0.50;0.50;;;;;;;9.78;76.85;96199.91;29395;199;63009;-58
2021/05/13 00:34:31;;;;;;;0.50;0.50;;;;;;;9.78;77.48;96202.63;29394;244;64009;-58
2021/05/13 00:35:07;;;;;;;0.50;0.50;;;;;;;9.76;78.12;96199.41;29394;211;64004;-58
2021/05/13 00:35:38;;;;;;;0.50;0.50;;;;;;;9.72;77.63;96199.22;29395;218;63009;-57
2021/05/13 00:36:09;;;;;;;0.50;0.50;;;;;;;9.72;77.27;96198.41;29395;217;63004;-57
2021/05/13 00:36:41;;;;;;;0.60;0.60;;;;;;;9.71;77.59;96196.81;29395;263;63009;-57
2021/05/13 00:37:12;;;;;;;0.60;0.60;;;;;;;9.71;77.39;96199.53;29395;211;63004;-57
2021/05/13 00:37:44;;;;;;;0.50;0.50;;;;;;;9.70;77.52;96195.25;29395;300;63017;-58
2021/05/13 00:38:15;;;;;;;0.50;0.50;;;;;;;9.68;77.36;96197.44;29395;232;63005;-58
2021/05/13 00:38:46;;;;;;;0.50;0.50;;;;;;;9.69;77.19;96199.06;29395;238;63009;-57
2021/05/13 00:39:17;;;;;;;0.50;0.50;;;;;;;9.69;77.19;96199.06;29395;214;63001;-58
2021/05/13 00:39:53;;;;;;;0.50;0.50;;;;;;;9.68;77.09;96200.97;29394;203;64009;-58
2021/05/13 00:40:24;;;;;;;0.50;0.50;;;;;;;9.67;77.44;96203.97;29395;222;63005;-57
2021/05/13 00:40:55;;;;;;;0.50;0.50;;;;;;;9.66;77.17;96189.63;29395;278;63009;-58
2021/05/13 00:41:29;;;;;;;0.50;0.50;;;;;;;9.67;77.06;96195.84;29395;240;63005;-63
2021/05/13 00:42:00;;;;;;;0.50;0.50;;;;;;;9.66;77.19;96188.81;29395;210;63009;-57
2021/05/13 00:42:31;;;;;;;0.50;0.50;;;;;;;9.65;77.41;96200.75;29395;232;63004;-58
2021/05/13 00:43:03;;;;;;;0.50;0.50;;;;;;;9.63;77.09;96195.66;29395;249;63009;-57
2021/05/13 00:43:37;;;;;;;0.50;0.50;;;;;;;9.64;77.48;96199.16;29394;234;64004;-58
2021/05/13 00:44:09;;;;;;;0.50;0.50;;;;;;;9.64;77.52;96201.88;29395;396;63009;-57
2021/05/13 00:44:44;;;;;;;0.55;0.55;;;;;;;9.64;77.39;96201.88;29394;207;64004;-57
2021/05/13 00:45:18;;;;;;;0.57;0.57;;;;;;;9.62;77.16;96193.25;29395;221;63009;-58
2021/05/13 00:45:49;;;;;;;0.60;0.60;;;;;;;9.63;77.27;96192.13;29395;222;63005;-57
2021/05/13 00:46:22;;;;;;;0.60;0.60;;;;;;;9.62;77.44;96195.94;29395;238;63009;-58
2021/05/13 00:46:53;;;;;;;0.50;0.50;;;;;;;9.64;76.76;96199.16;29395;197;63005;-59
2021/05/13 00:47:27;;;;;;;0.50;0.50;;;;;;;9.62;77.08;96193.25;29395;332;63009;-57
2021/05/13 00:48:40;;;;;;;0.60;0.60;;;;;;;9.64;77.28;96202.66;29395;370;63009;-58
2021/05/13 00:49:15;;;;;;;0.50;0.50;;;;;;;9.63;76.79;96198.34;29395;206;63005;-58
2021/05/13 00:49:46;;;;;;;0.50;0.50;;;;;;;9.64;76.94;96191.03;29394;213;64009;-57
2021/05/13 00:50:17;;;;;;;0.50;0.50;;;;;;;9.64;76.86;96197.25;29395;231;63004;-59
2021/05/13 00:50:48;;;;;;;0.60;0.60;;;;;;;9.62;76.78;96193.25;29395;314;63009;-57
2021/05/13 00:51:19;;;;;;;0.50;0.50;;;;;;;9.61;77.00;96194.34;29395;278;63014;-58
2021/05/13 00:51:50;;;;;;;0.50;0.50;;;;;;;9.61;76.75;96191.63;29395;243;63009;-57
2021/05/13 00:52:25;;;;;;;0.50;0.50;;;;;;;9.60;76.68;96196.25;29394;214;64004;-58
2021/05/13 00:52:58;;;;;;;0.60;0.60;;;;;;;9.61;76.93;96195.16;29395;264;63009;-59
2021/05/13 00:53:29;;;;;;;0.50;0.50;;;;;;;9.62;76.39;96193.25;29395;245;63005;-58
2021/05/13 00:54:01;;;;;;;0.50;0.50;;;;;;;9.62;76.76;96201.38;29395;219;63009;-57
2021/05/13 00:54:32;;;;;;;0.50;0.50;;;;;;;9.60;76.49;96200.88;29395;203;63005;-59
2021/05/13 00:55:04;;;;;;;0.60;0.60;;;;;;;9.59;77.32;96199.25;29394;248;64009;-64
2021/05/13 00:55:37;;;;;;;0.60;0.60;;;;;;;9.59;77.20;96197.34;29395;227;63005;-58
2021/05/13 00:56:08;;;;;;;0.60;0.60;;;;;;;9.57;77.86;96198.75;29395;202;63009;-58
2021/05/13 00:56:39;;;;;;;0.50;0.50;;;;;;;9.55;77.78;96198.25;29395;226;63005;-57
2021/05/13 00:57:13;;;;;;;0.50;0.50;;;;;;;9.54;77.71;96197.44;29395;198;63009;-57
2021/05/13 00:57:48;;;;;;;0.50;0.50;;;;;;;9.55;77.58;96203.69;29395;219;63004;-57
2021/05/13 00:58:24;;;;;;;0.50;0.50;;;;;;;9.56;77.79;96205.28;29395;220;63009;-58
2021/05/13 00:59:10;;;;;;;0.50;0.50;;;;;;;9.55;77.74;96198.25;29395;204;63004;-58
2021/05/13 00:59:48;;;;;;;0.50;0.50;;;;;;;9.56;77.36;96199.84;29394;216;64008;-58
2021/05/13 01:01:15;;;;;;;0.50;0.50;;;;;;;9.57;77.16;96199.56;29395;249;63009;-58
2021/05/13 01:01:49;;;;;;;0.60;0.60;;;;;;;9.57;77.03;96202.28;29395;210;63005;-58
2021/05/13 01:02:23;;;;;;;0.50;0.50;;;;;;;9.59;77.21;96199.25;29395;226;63009;-57
2021/05/13 01:02:56;;;;;;;0.52;0.52;;;;;;;9.59;76.70;96196.56;29395;209;63005;-57
2021/05/13 01:03:27;;;;;;;0.50;0.50;;;;;;;9.58;77.06;96201.16;29395;387;63009;-63
2021/05/13 01:03:58;;;;;;;0.50;0.50;;;;;;;9.58;76.72;96205.78;29395;275;63004;-57
2021/05/13 01:04:29;;;;;;;0.60;0.60;;;;;;;9.57;77.08;96201.47;29395;276;63009;-58
2021/05/13 01:05:00;;;;;;;0.50;0.50;;;;;;;9.58;76.63;96205.78;29394;228;64004;-57
2021/05/13 01:05:33;;;;;;;0.60;0.60;;;;;;;9.58;77.08;96208.50;29395;218;63009;-59
2021/05/13 01:06:10;;;;;;;0.50;0.50;;;;;;;9.58;76.85;96205.78;29395;252;63009;-58
2021/05/13 01:06:41;;;;;;;0.50;0.50;;;;;;;9.58;77.12;96205.78;29395;215;63014;-57
2021/05/13 01:07:12;;;;;;;0.60;0.60;;;;;;;9.58;77.17;96208.50;29394;218;64004;-57
2021/05/13 01:07:43;;;;;;;0.50;0.50;;;;;;;9.59;77.19;96205.47;29395;220;63008;-57
2021/05/13 01:08:14;;;;;;;0.60;0.60;;;;;;;9.58;77.03;96203.06;29395;223;63005;-58
2021/05/13 01:08:48;;;;;;;0.50;0.50;;;;;;;9.57;77.44;96209.59;29395;265;63009;-57
2021/05/13 01:09:23;;;;;;;0.50;0.50;;;;;;;9.56;77.23;96200.66;29395;303;63005;-58
2021/05/13 01:09:54;;;;;;;0.60;0.60;;;;;;;9.55;77.47;96209.09;29395;251;63009;-59
2021/05/13 01:10:27;;;;;;;0.50;0.50;;;;;;;9.56;77.30;96208.78;29394;286;64005;-59
2021/05/13 01:10:58;;;;;;;0.50;0.50;;;;;;;9.56;77.48;96200.66;29395;230;63009;-57
2021/05/13 01:11:29;;;;;;;0.60;0.60;;;;;;;9.57;77.35;96206.88;29395;258;63004;-58
2021/05/13 01:12:10;;;;;;;0.50;0.50;;;;;;;9.57;77.47;96210.41;29395;252;63009;-57
2021/05/13 01:12:43;;;;;;;0.60;0.60;;;;;;;9.57;77.20;96207.69;29416;278;64004;-58
2021/05/13 01:13:19;;;;;;;0.55;0.55;;;;;;;9.57;77.47;96206.88;29395;239;63009;-57
2021/05/13 01:14:53;;;;;;;0.60;0.60;;;;;;;9.56;77.25;96208.00;29395;203;63009;-57
2021/05/13 01:15:33;;;;;;;0.60;0.60;;;;;;;9.57;77.13;96210.41;29395;277;63005;-57
2021/05/13 01:16:12;;;;;;;0.60;0.60;;;;;;;9.56;77.15;96202.56;29438;206;64009;-57
2021/05/13 01:18:08;;;;;;;0.60;0.60;;;;;;;9.56;77.68;96208.78;29395;211;63009;-57
2021/05/13 01:18:41;;;;;;;0.60;0.60;;;;;;;9.56;77.54;96206.09;29395;238;63009;-57
2021/05/13 01:19:15;;;;;;;0.60;0.60;;;;;;;9.56;78.21;96208.00;29395;198;63009;-59
2021/05/13 01:19:51;;;;;;;0.50;0.50;;;;;;;9.55;77.95;96209.09;29395;198;63013;-57
2021/05/13 01:20:22;;;;;;;0.60;0.60;;;;;;;9.53;77.62;96206.69;29394;221;64009;-57
2021/05/13 01:20:54;;;;;;;0.60;0.60;;;;;;;9.53;77.83;96208.59;29395;220;63004;-58
2021/05/13 01:21:25;;;;;;;0.50;0.50;;;;;;;9.52;77.84;96202.38;29395;273;63008;-57
2021/05/13 01:21:56;;;;;;;0.50;0.50;;;;;;;9.53;77.84;96212.09;29395;236;63004;-58
2021/05/13 01:22:28;;;;;;;0.50;0.50;;;;;;;9.52;78.13;96213.19;29395;199;63009;-58
2021/05/13 01:23:00;;;;;;;0.60;0.60;;;;;;;9.52;77.89;96210.50;29395;268;63005;-57
2021/05/13 01:23:31;;;;;;;0.60;0.60;;;;;;;9.52;78.02;96212.41;29395;270;63009;-57
2021/05/13 01:24:04;;;;;;;0.50;0.50;;;;;;;9.52;77.74;96206.97;29395;204;63005;-58
2021/05/13 01:24:35;;;;;;;0.60;0.60;;;;;;;9.52;77.81;96212.41;29395;258;63009;-57
2021/05/13 01:25:08;;;;;;;0.60;0.60;;;;;;;9.52;77.60;96202.38;29395;264;63005;-57
2021/05/13 01:25:54;;;;;;;0.50;0.50;;;;;;;9.53;77.87;96206.69;29394;219;64009;-57
2021/05/13 01:26:25;;;;;;;0.60;0.60;;;;;;;9.54;77.99;96210.19;29395;220;63004;-58
2021/05/13 01:26:56;;;;;;;0.50;0.50;;;;;;;9.53;77.91;96205.87;29394;211;64009;-58
2021/05/13 01:27:31;;;;;;;0.50;0.50;;;;;;;9.53;77.74;96214.00;29394;218;64004;-56
2021/05/13 01:28:03;;;;;;;0.50;0.50;;;;;;;9.54;77.68;96207.47;29395;234;63009;-57
2021/05/13 01:28:34;;;;;;;0.50;0.50;;;;;;;9.54;77.56;96207.47;29395;225;63004;-57
2021/05/13 01:29:05;;;;;;;0.50;0.50;;;;;;;9.54;77.81;96202.88;29395;206;63008;-57
2021/05/13 01:29:44;;;;;;;0.50;0.50;;;;;;;9.55;77.41;96206.37;29395;229;63004;-58
2021/05/13 01:30:17;;;;;;;0.60;0.60;;;;;;;9.55;77.44;96209.09;29395;197;63009;-57
2021/05/13 01:30:50;;;;;;;0.60;0.60;;;;;;;9.55;77.62;96214.50;29395;222;63005;-57
2021/05/13 01:31:22;;;;;;;0.50;0.50;;;;;;;9.54;77.85;96208.28;29395;206;63009;-57
2021/05/13 01:31:55;;;;;;;0.60;0.60;;;;;;;9.54;77.34;96208.28;29395;216;63005;-57
2021/05/13 01:32:26;;;;;;;0.60;0.60;;;;;;;9.54;77.57;96202.06;29394;253;64009;-57
2021/05/13 01:32:59;;;;;;;0.60;0.60;;;;;;;9.54;77.44;96204.78;29395;218;63005;-57
2021/05/13 01:33:30;;;;;;;0.60;0.60;;;;;;;9.54;77.52;96212.91;29395;285;63009;-57
2021/05/13 01:34:05;;;;;;;0.50;0.50;;;;;;;9.54;77.34;96202.06;29395;255;63004;-59
2021/05/13 01:34:36;;;;;;;0.60;0.60;;;;;;;9.53;77.82;96205.87;29395;211;63009;-57
2021/05/13 01:35:08;;;;;;;0.60;0.60;;;;;;;9.52;77.87;96206.97;29395;264;63004;-58
2021/05/13 01:35:43;;;;;;;0.60;0.60;;;;;;;9.51;78.14;96202.66;29395;196;63016;-57
2021/05/13 01:36:14;;;;;;;0.60;0.60;;;;;;;9.49;78.30;96205.69;29394;224;64004;-58
2021/05/13 01:36:46;;;;;;;0.60;0.60;;;;;;;9.48;77.93;96206.78;29395;235;63008;-57
2021/05/13 01:37:18;;;;;;;0.60;0.60;;;;;;;9.48;77.84;96205.97;29394;204;64005;-58
2021/05/13 01:38:07;;;;;;;0.50;0.50;;;;;;;9.47;78.23;96201.66;29395;235;63009;-57
2021/05/13 01:38:38;;;;;;;0.60;0.60;;;;;;;9.48;77.71;96198.66;29395;305;63005;-57
2021/05/13 01:39:11;;;;;;;0.60;0.60;;;;;;;9.47;77.99;96202.47;29395;333;63009;-58
2021/05/13 01:39:42;;;;;;;0.50;0.50;;;;;;;9.47;77.89;96197.06;29395;248;63005;-57
2021/05/13 01:40:15;;;;;;;0.50;0.50;;;;;;;9.46;78.34;96195.44;29395;312;63009;-57
2021/05/13 01:40:58;;;;;;;0.50;0.50;;;;;;;9.46;78.00;96195.44;29395;208;63005;-57
2021/05/13 01:41:29;;;;;;;0.50;0.50;;;;;;;9.46;78.01;96189.22;29395;209;63009;-57
2021/05/13 01:42:00;;;;;;;0.50;0.50;;;;;;;9.46;78.39;96197.34;29395;212;63004;-57
2021/05/13 01:42:32;;;;;;;0.60;0.60;;;;;;;9.46;78.25;96208.19;29394;210;64009;-57
2021/05/13 01:43:04;;;;;;;0.50;0.50;;;;;;;9.47;78.14;96196.25;29395;204;63000;-57
2021/05/13 01:43:36;;;;;;;0.60;0.60;;;;;;;9.46;78.26;96203.56;29395;219;63009;-57
2021/05/13 01:44:07;;;;;;;0.60;0.60;;;;;;;9.46;77.98;96200.88;29395;238;63004;-58
2021/05/13 01:44:39;;;;;;;0.60;0.60;;;;;;;9.46;78.18;96200.06;29395;215;63008;-58
2021/05/13 01:45:12;;;;;;;0.50;0.50;;;;;;;9.46;78.14;96205.47;29395;278;63005;-57
2021/05/13 01:45:43;;;;;;;0.50;0.50;;;;;;;9.46;77.97;96205.47;29395;220;63009;-57
2021/05/13 01:46:15;;;;;;;0.60;0.60;;;;;;;9.45;78.15;96203.88;29395;204;63005;-59
2021/05/13 01:46:46;;;;;;;0.50;0.50;;;;;;;9.44;78.29;96199.56;29394;245;64009;-58
2021/05/13 01:47:17;;;;;;;0.50;0.50;;;;;;;9.43;78.27;96206.09;29394;203;64005;-57
2021/05/13 01:47:48;;;;;;;0.60;0.60;;;;;;;9.44;78.22;96191.44;29395;263;63009;-57
2021/05/13 01:48:22;;;;;;;0.60;0.60;;;;;;;9.45;77.86;96193.03;29395;209;63000;-57
2021/05/13 01:48:53;;;;;;;0.50;0.50;;;;;;;9.45;77.93;96201.16;29395;226;63009;-57
2021/05/13 01:49:28;;;;;;;0.60;0.60;;;;;;;9.44;78.17;96192.25;29395;218;63004;-58
2021/05/13 01:49:59;;;;;;;0.50;0.50;;;;;;;9.43;77.96;96192.53;29395;199;63004;-58
2021/05/13 01:50:32;;;;;;;0.50;0.50;;;;;;;9.41;78.08;96190.94;29395;276;63004;-56
2021/05/13 01:51:04;;;;;;;0.50;0.50;;;;;;;9.41;78.42;96187.44;29395;211;63009;-58
2021/05/13 01:51:35;;;;;;;0.60;0.60;;;;;;;9.40;78.36;96186.62;29395;263;63004;-56
2021/05/13 01:52:06;;;;;;;0.60;0.60;;;;;;;9.40;78.22;96192.03;29395;220;63008;-56
2021/05/13 01:52:38;;;;;;;0.50;0.50;;;;;;;9.38;78.51;96191.53;29394;233;64005;-58
2021/05/13 01:53:09;;;;;;;0.50;0.50;;;;;;;9.39;78.29;96185.03;29395;200;63009;-58
2021/05/13 01:53:42;;;;;;;0.50;0.50;;;;;;;9.38;78.28;96186.12;29395;277;63005;-64
2021/05/13 01:54:14;;;;;;;0.50;0.50;;;;;;;9.38;78.49;96183.41;29395;197;63009;-57
2021/05/13 01:54:45;;;;;;;0.50;0.50;;;;;;;9.38;78.50;96183.41;29395;236;63005;-58
2021/05/13 01:55:17;;;;;;;0.50;0.50;;;;;;;9.39;78.66;96184.22;29395;211;63009;-56
2021/05/13 01:55:49;;;;;;;0.57;0.57;;;;;;;9.37;78.87;96181.81;29395;263;63005;-63
2021/05/13 01:56:20;;;;;;;0.50;0.50;;;;;;;9.36;79.00;96185.62;29395;250;63009;-56
2021/05/13 01:56:53;;;;;;;0.60;0.60;;;;;;;9.37;78.68;96181.00;29395;198;63007;-56
2021/05/13 01:57:24;;;;;;;0.50;0.50;;;;;;;9.37;78.52;96184.53;29395;260;63009;-58
2021/05/13 01:58:00;;;;;;;0.52;0.52;;;;;;;9.36;78.48;96177.50;29394;206;63994;-57
2021/05/13 01:58:31;;;;;;;0.60;0.60;;;;;;;9.34;78.82;96174.31;29395;253;63009;-56
2021/05/13 01:59:03;;;;;;;0.60;0.60;;;;;;;9.33;78.63;96180.03;29395;277;63010;-58
2021/05/13 01:59:34;;;;;;;0.50;0.50;;;;;;;9.32;78.92;96173.81;29395;219;63008;-57
2021/05/13 02:00:07;;;;;;;0.60;0.60;;;;;;;9.32;78.67;96171.09;29394;244;64005;-57
2021/05/13 02:00:40;;;;;;;0.50;0.50;;;;;;;9.33;78.83;96169.22;29395;227;63009;-57
2021/05/13 02:01:14;;;;;;;0.50;0.50;;;;;;;9.32;79.28;96167.59;29395;220;63005;-57
2021/05/13 02:01:45;;;;;;;0.60;0.60;;;;;;;9.31;79.30;96171.41;29395;198;63009;-57
2021/05/13 02:02:20;;;;;;;0.60;0.60;;;;;;;9.28;79.84;96175.53;29395;203;63005;-58
2021/05/13 02:02:53;;;;;;;0.50;0.50;;;;;;;9.27;79.53;96170.41;29395;233;63009;-58
2021/05/13 02:03:25;;;;;;;0.50;0.50;;;;;;;9.25;79.58;96173.41;29395;216;63005;-58
2021/05/13 02:03:58;;;;;;;0.60;0.60;;;;;;;9.25;79.70;96172.63;29395;230;63009;-56
2021/05/13 02:04:30;;;;;;;0.50;0.50;;;;;;;9.25;79.50;96165.28;29395;214;63004;-57
2021/05/13 02:05:02;;;;;;;0.50;0.50;;;;;;;9.26;79.66;96164.19;29395;251;63009;-57
2021/05/13 02:05:33;;;;;;;0.50;0.50;;;;;;;9.25;79.48;96162.59;29394;209;64004;-58
2021/05/13 02:06:05;;;;;;;0.50;0.50;;;;;;;9.24;79.86;96166.41;29395;210;63009;-58
2021/05/13 02:06:36;;;;;;;0.60;0.60;;;;;;;9.24;79.42;96163.69;29395;243;63004;-57
2021/05/13 02:07:07;;;;;;;0.50;0.50;;;;;;;9.25;79.61;96168.00;29395;203;63008;-57
2021/05/13 02:07:38;;;;;;;0.50;0.50;;;;;;;9.26;79.49;96168.81;29395;202;63005;-57
2021/05/13 02:08:10;;;;;;;0.50;0.50;;;;;;;9.26;79.49;96164.19;29395;215;63009;-57
2021/05/13 02:08:41;;;;;;;0.60;0.60;;;;;;;9.27;79.31;96163.09;29395;244;63005;-63
2021/05/13 02:09:14;;;;;;;0.50;0.50;;;;;;;9.26;79.72;96164.19;29395;216;63009;-62
2021/05/13 02:09:45;;;;;;;0.50;0.50;;;;;;;9.24;79.67;96160.97;29395;215;63005;-57
2021/05/13 02:10:18;;;;;;;0.57;0.57;;;;;;;9.24;79.49;96166.41;29395;221;63009;-62
2021/05/13 02:10:49;;;;;;;0.52;0.52;;;;;;;9.22;79.64;96159.69;29394;254;64004;-57
2021/05/13 02:11:20;;;;;;;0.50;0.50;;;;;;;9.22;80.06;96168.59;29395;216;63009;-57
2021/05/13 02:11:51;;;;;;;0.60;0.60;;;;;;;9.22;80.01;96163.19;29395;229;63004;-57
2021/05/13 02:12:22;;;;;;;0.55;0.55;;;;;;;9.22;79.93;96163.19;29395;211;63009;-57
2021/05/13 02:12:56;;;;;;;0.50;0.50;;;;;;;9.23;79.72;96167.50;29395;216;63004;-57
2021/05/13 02:13:28;;;;;;;0.50;0.50;;;;;;;9.22;79.89;96168.59;29395;220;63008;-57
2021/05/13 02:13:59;;;;;;;0.60;0.60;;;;;;;9.22;79.63;96167.81;29394;215;64004;-58
2021/05/13 02:14:31;;;;;;;0.60;0.60;;;;;;;9.20;79.73;96162.69;29394;196;64008;-58
2021/05/13 02:15:05;;;;;;;0.50;0.50;;;;;;;9.20;79.76;96159.97;29395;221;63005;-58
2021/05/13 02:15:36;;;;;;;0.52;0.52;;;;;;;9.20;80.00;96162.69;29395;216;63009;-58
2021/05/13 02:16:08;;;;;;;0.50;0.50;;;;;;;9.20;80.01;96170.81;29394;211;64005;-55
2021/05/13 02:16:39;;;;;;;0.50;0.50;;;;;;;9.18;79.99;96162.19;29395;222;63009;-57
2021/05/13 02:17:10;;;;;;;0.57;0.57;;;;;;;9.18;79.97;96167.59;29394;311;64005;-57
2021/05/13 02:17:41;;;;;;;0.57;0.57;;;;;;;9.16;80.09;96164.38;29395;224;63009;-57
2021/05/13 02:18:12;;;;;;;0.50;0.50;;;;;;;9.15;79.83;96162.78;29395;202;63005;-57
2021/05/13 02:18:49;;;;;;;0.57;0.57;;;;;;;9.15;80.27;96162.78;29395;216;63009;-57
2021/05/13 02:19:21;;;;;;;0.93;0.93;;;;;;;9.14;80.32;96161.19;29395;206;63004;-57
2021/05/13 02:19:52;;;;;;;0.50;0.50;;;;;;;9.13;80.24;96170.41;29394;199;64009;-56
2021/05/13 02:20:25;;;;;;;0.60;0.60;;;;;;;9.12;80.56;96166.09;29395;270;63004;-57
2021/05/13 02:20:56;;;;;;;0.50;0.50;;;;;;;9.12;80.27;96162.56;29395;222;63008;-57
2021/05/13 02:21:27;;;;;;;0.50;0.50;;;;;;;9.11;80.27;96172.59;29395;197;63004;-57
2021/05/13 02:21:58;;;;;;;0.52;0.52;;;;;;;9.08;80.36;96163.19;29395;247;63009;-57
2021/05/13 02:22:29;;;;;;;0.60;0.60;;;;;;;9.10;80.88;96167.50;29395;214;63004;-57
2021/05/13 02:23:00;;;;;;;0.50;0.50;;;;;;;9.09;80.65;96161.28;29395;200;63009;-57
2021/05/13 02:23:32;;;;;;;0.50;0.50;;;;;;;9.09;80.92;96163.97;29395;245;63005;-57
2021/05/13 02:24:05;;;;;;;0.50;0.50;;;;;;;9.07;80.78;96161.56;29395;233;63009;-62
2021/05/13 02:24:36;;;;;;;0.50;0.50;;;;;;;9.07;80.38;96166.19;29395;202;63005;-57
2021/05/13 02:25:09;;;;;;;0.50;0.50;;;;;;;9.07;80.75;96156.16;29394;226;64009;-56
2021/05/13 02:25:44;;;;;;;0.50;0.50;;;;;;;9.07;80.85;96160.78;29395;271;63005;-57
2021/05/13 02:26:18;;;;;;;0.50;0.50;;;;;;;9.06;80.75;96170.00;29395;243;63009;-57
2021/05/13 02:26:49;;;;;;;0.50;0.50;;;;;;;9.05;81.13;96162.97;29395;196;63004;-56
2021/05/13 02:27:20;;;;;;;0.60;0.60;;;;;;;9.03;81.00;96159.75;29394;197;64009;-57
2021/05/13 02:27:51;;;;;;;0.60;0.60;;;;;;;9.01;80.93;96157.34;29395;258;63004;-57
2021/05/13 02:28:24;;;;;;;0.50;0.50;;;;;;;9.01;81.12;96161.97;29395;229;63009;-57
2021/05/13 02:28:55;;;;;;;0.50;0.50;;;;;;;9.00;81.02;96160.41;29395;214;63004;-57
2021/05/13 02:29:26;;;;;;;0.50;0.50;;;;;;;9.01;80.96;96161.97;29395;197;63009;-58
2021/05/13 02:29:58;;;;;;;0.60;0.60;;;;;;;9.00;81.21;96155.78;29395;259;63005;-57
2021/05/13 02:30:29;;;;;;;0.60;0.60;;;;;;;9.01;81.11;96159.25;29395;213;63009;-57
2021/05/13 02:31:00;;;;;;;0.50;0.50;;;;;;;9.00;81.10;96161.19;29395;225;63005;-57
2021/05/13 02:31:31;;;;;;;0.60;0.60;;;;;;;9.01;80.80;96159.25;29395;229;63018;-62
2021/05/13 02:32:03;;;;;;;0.60;0.60;;;;;;;9.00;80.83;96155.78;29394;202;64005;-57
2021/05/13 02:32:36;;;;;;;0.60;0.60;;;;;;;8.99;81.10;96156.09;29394;246;64009;-57
2021/05/13 02:33:07;;;;;;;0.60;0.60;;;;;;;8.98;81.12;96158.00;29395;206;63005;-62
2021/05/13 02:33:39;;;;;;;0.60;0.60;;;;;;;8.96;81.31;96154.78;29395;206;63009;-57
2021/05/13 02:34:13;;;;;;;0.60;0.60;;;;;;;8.96;81.31;96151.28;29395;213;63004;-57
2021/05/13 02:34:44;;;;;;;0.60;0.60;;;;;;;8.95;81.19;96153.19;29395;253;63009;-57
2021/05/13 02:35:16;;;;;;;0.52;0.52;;;;;;;8.98;81.01;96152.56;29395;246;63004;-57
2021/05/13 02:35:48;;;;;;;0.60;0.60;;;;;;;8.99;80.69;96156.09;29395;202;63009;-57
2021/05/13 02:36:19;;;;;;;0.60;0.60;;;;;;;9.00;81.06;96154.97;29395;197;63004;-57
2021/05/13 02:36:50;;;;;;;0.50;0.50;;;;;;;8.99;80.69;96158.78;29395;221;63009;-57
2021/05/13 02:37:22;;;;;;;0.60;0.60;;;;;;;8.99;81.15;96153.38;29395;244;63005;-58
2021/05/13 02:37:53;;;;;;;0.60;0.60;;;;;;;9.00;80.84;96144.16;29394;272;64009;-64
2021/05/13 02:38:24;;;;;;;0.60;0.60;;;;;;;8.99;80.80;96147.97;29395;245;63005;-58
2021/05/13 02:38:55;;;;;;;0.50;0.50;;;;;;;8.98;80.99;96146.38;29395;241;63009;-57
2021/05/13 02:39:26;;;;;;;0.73;0.73;;;;;;;8.97;81.21;96144.75;29395;209;63005;-56
2021/05/13 02:39:58;;;;;;;0.60;0.60;;;;;;;8.96;81.17;96146.66;29395;244;63009;-58
2021/05/13 02:40:29;;;;;;;0.57;0.57;;;;;;;8.96;80.98;96148.56;29395;198;63005;-57
2021/05/13 02:41:00;;;;;;;0.60;0.60;;;;;;;8.95;80.85;96145.06;29395;198;63009;-57